sensor_id;sensor_type;location;lat;lon;timestamp;pressure;altitude;pressure_sealevel;temperature;humidity
13594;BME280;6449;47.666;9.160;2023-04-07T00:03:05;97090.06;;;8.33;100.00
13594;BME280;6449;47.666;9.160;2023-04-07T00:08:00;97082.97;;;8.35;100.00
13594;BME280;6449;47.666;9.160;2023-04-07T00:12:53;97091.88;;;8.19;100.00
13594;BME280;6449;47.666;9.160;2023-04-07T00:17:46;97091.06;;;8.04;100.00
13594;BME280;6449;47.666;9.160;2023-04-07T00:22:43;97082.31;;;8.05;100.00
13594;BME280;6449;47.666;9.160;2023-04-07T00:27:37;97077.63;;;8.10;100.00
13594;BME280;6449;47.666;9.160;2023-04-07T00:32:30;97092.59;;;7.94;100.00
13594;BME280;6449;47.666;9.160;2023-04-07T00:37:26;97073.94;;;7.85;100.00
13594;BME280;6449;47.666;9.160;2023-04-07T00:42:21;97082.53;;;7.73;100.00
13594;BME280;6449;47.666;9.160;2023-04-07T00:47:14;97065.00;;;7.61;100.00
13594;BME280;6449;47.666;9.160;2023-04-07T00:52:11;97052.06;;;7.74;100.00
13594;BME280;6449;47.666;9.160;2023-04-07T00:57:22;97043.56;;;7.84;100.00
13594;BME280;6449;47.666;9.160;2023-04-07T01:03:00;97029.66;;;7.84;100.00
13594;BME280;6449;47.666;9.160;2023-04-07T01:15:20;97009.72;;;7.83;100.00
13594;BME280;6449;47.666;9.160;2023-04-07T01:32:17;96965.81;;;7.90;100.00
13594;BME280;6449;47.666;9.160;2023-04-07T01:37:14;96962.69;;;7.97;100.00
13594;BME280;6449;47.666;9.160;2023-04-07T01:53:45;96966.34;;;8.22;100.00
13594;BME280;6449;47.666;9.160;2023-04-07T01:58:39;96956.47;;;8.12;100.00
13594;BME280;6449;47.666;9.160;2023-04-07T02:10:15;96953.56;;;8.17;100.00
13594;BME280;6449;47.666;9.160;2023-04-07T03:08:58;96904.13;;;7.47;100.00
13594;BME280;6449;47.666;9.160;2023-04-07T03:13:52;96906.50;;;7.38;100.00
13594;BME280;6449;47.666;9.160;2023-04-07T03:18:45;96899.94;;;7.45;100.00
13594;BME280;6449;47.666;9.160;2023-04-07T03:23:39;96901.81;;;7.43;100.00
13594;BME280;6449;47.666;9.160;2023-04-07T03:28:36;96886.16;;;7.43;100.00
13594;BME280;6449;47.666;9.160;2023-04-07T03:33:29;96876.47;;;7.45;100.00
13594;BME280;6449;47.666;9.160;2023-04-07T03:38:23;96863.03;;;7.51;100.00
13594;BME280;6449;47.666;9.160;2023-04-07T03:43:16;96865.16;;;7.31;100.00
13594;BME280;6449;47.666;9.160;2023-04-07T03:48:11;96852.69;;;7.22;100.00
13594;BME280;6449;47.666;9.160;2023-04-07T03:53:07;96838.72;;;7.23;100.00
13594;BME280;6449;47.666;9.160;2023-04-07T04:08:13;96841.22;;;6.83;100.00
13594;BME280;6449;47.666;9.160;2023-04-07T04:18:09;96836.38;;;6.63;100.00
13594;BME280;6449;47.666;9.160;2023-04-07T04:23:02;96840.56;;;6.66;100.00
13594;BME280;6449;47.666;9.160;2023-04-07T04:27:57;96838.25;;;6.61;100.00
13594;BME280;6449;47.666;9.160;2023-04-07T04:32:51;96837.03;;;6.52;100.00
13594;BME280;6449;47.666;9.160;2023-04-07T04:37:44;96840.56;;;6.66;100.00
13594;BME280;6449;47.666;9.160;2023-04-07T04:42:38;96839.00;;;6.77;100.00
13594;BME280;6449;47.666;9.160;2023-04-07T04:47:33;96829.31;;;6.79;100.00
13594;BME280;6449;47.666;9.160;2023-04-07T05:02:42;96831.00;;;6.52;100.00
13594;BME280;6449;47.666;9.160;2023-04-07T05:12:45;96833.03;;;6.33;100.00
13594;BME280;6449;47.666;9.160;2023-04-07T05:17:55;96826.72;;;6.51;100.00
13594;BME280;6449;47.666;9.160;2023-04-07T05:22:51;96830.91;;;6.53;100.00
13594;BME280;6449;47.666;9.160;2023-04-07T05:27:56;96830.91;;;6.68;100.00
13594;BME280;6449;47.666;9.160;2023-04-07T05:33:12;96826.31;;;6.86;100.00
13594;BME280;6449;47.666;9.160;2023-04-07T05:38:05;96810.78;;;6.98;100.00
13594;BME280;6449;47.666;9.160;2023-04-07T05:42:59;96818.09;;;7.06;100.00
13594;BME280;6449;47.666;9.160;2023-04-07T05:48:04;96819.59;;;6.96;100.00
13594;BME280;6449;47.666;9.160;2023-04-07T05:53:14;96824.16;;;6.92;100.00
13594;BME280;6449;47.666;9.160;2023-04-07T05:58:07;96832.41;;;6.72;100.00
13594;BME280;6449;47.666;9.160;2023-04-07T06:03:27;96831.34;;;6.60;100.00
13594;BME280;6449;47.666;9.160;2023-04-07T06:08:23;96827.53;;;6.80;100.00
13594;BME280;6449;47.666;9.160;2023-04-07T06:13:16;96819.13;;;7.03;100.00
13594;BME280;6449;47.666;9.160;2023-04-07T06:18:09;96819.06;;;7.32;100.00
13594;BME280;6449;47.666;9.160;2023-04-07T06:23:03;96818.09;;;7.60;100.00
13594;BME280;6449;47.666;9.160;2023-04-07T06:27:59;96824.03;;;7.89;100.00
13594;BME280;6449;47.666;9.160;2023-04-07T06:32:54;96822.19;;;8.17;100.00
13594;BME280;6449;47.666;9.160;2023-04-07T06:37:48;96819.88;;;8.25;100.00
13594;BME280;6449;47.666;9.160;2023-04-07T06:47:51;96821.00;;;8.08;100.00
13594;BME280;6449;47.666;9.160;2023-04-07T06:52:48;96811.09;;;8.13;100.00
13594;BME280;6449;47.666;9.160;2023-04-07T06:57:41;96814.44;;;8.02;100.00
13594;BME280;6449;47.666;9.160;2023-04-07T07:02:37;96809.97;;;8.17;100.00
13594;BME280;6449;47.666;9.160;2023-04-07T07:07:32;96809.44;;;8.50;100.00
13594;BME280;6449;47.666;9.160;2023-04-07T07:12:27;96801.28;;;8.80;100.00
13594;BME280;6449;47.666;9.160;2023-04-07T07:17:21;96804.53;;;9.08;100.00
13594;BME280;6449;47.666;9.160;2023-04-07T07:27:16;96813.59;;;9.15;100.00
13594;BME280;6449;47.666;9.160;2023-04-07T07:32:10;96812.91;;;9.37;100.00
13594;BME280;6449;47.666;9.160;2023-04-07T07:37:03;96815.13;;;9.30;100.00
13594;BME280;6449;47.666;9.160;2023-04-07T07:57:19;96821.69;;;9.36;100.00
13594;BME280;6449;47.666;9.160;2023-04-07T08:02:15;96822.53;;;9.36;100.00
13594;BME280;6449;47.666;9.160;2023-04-07T08:07:09;96829.06;;;9.55;100.00
13594;BME280;6449;47.666;9.160;2023-04-07T08:12:03;96829.44;;;9.61;100.00
13594;BME280;6449;47.666;9.160;2023-04-07T08:17:04;96822.75;;;9.81;100.00
13594;BME280;6449;47.666;9.160;2023-04-07T08:22:00;96832.97;;;10.08;100.00
13594;BME280;6449;47.666;9.160;2023-04-07T08:26:55;96834.03;;;10.17;100.00
13594;BME280;6449;47.666;9.160;2023-04-07T08:31:49;96828.91;;;10.62;100.00
13594;BME280;6449;47.666;9.160;2023-04-07T08:36:44;96815.66;;;10.97;100.00
13594;BME280;6449;47.666;9.160;2023-04-07T08:41:39;96821.53;;;10.67;100.00
13594;BME280;6449;47.666;9.160;2023-04-07T08:46:34;96826.63;;;10.46;100.00
13594;BME280;6449;47.666;9.160;2023-04-07T08:56:59;96812.91;;;10.42;100.00
13594;BME280;6449;47.666;9.160;2023-04-07T09:01:54;96811.91;;;10.21;100.00
13594;BME280;6449;47.666;9.160;2023-04-07T09:06:48;96812.56;;;10.36;100.00
13594;BME280;6449;47.666;9.160;2023-04-07T09:16:55;96820.78;;;10.42;100.00
13594;BME280;6449;47.666;9.160;2023-04-07T09:27:14;96832.84;;;10.10;100.00
13594;BME280;6449;47.666;9.160;2023-04-07T09:32:35;96827.09;;;10.05;100.00
13594;BME280;6449;47.666;9.160;2023-04-07T09:37:30;96823.44;;;10.07;100.00
13594;BME280;6449;47.666;9.160;2023-04-07T09:47:32;96819.34;;;10.38;100.00
13594;BME280;6449;47.666;9.160;2023-04-07T09:52:50;96832.69;;;10.35;100.00
13594;BME280;6449;47.666;9.160;2023-04-07T09:57:47;96823.88;;;10.36;100.00
13594;BME280;6449;47.666;9.160;2023-04-07T10:02:48;96824.34;;;10.30;100.00
13594;BME280;6449;47.666;9.160;2023-04-07T10:07:42;96816.63;;;10.40;100.00
13594;BME280;6449;47.666;9.160;2023-04-07T10:12:37;96822.69;;;10.52;100.00
13594;BME280;6449;47.666;9.160;2023-04-07T10:17:33;96826.03;;;10.65;100.00
13594;BME280;6449;47.666;9.160;2023-04-07T10:22:41;96825.09;;;10.77;100.00
13594;BME280;6449;47.666;9.160;2023-04-07T10:32:48;96830.00;;;10.93;100.00
13594;BME280;6449;47.666;9.160;2023-04-07T10:38:10;96830.56;;;11.19;100.00
13594;BME280;6449;47.666;9.160;2023-04-07T10:43:06;96823.38;;;11.32;98.44
13594;BME280;6449;47.666;9.160;2023-04-07T10:58:41;96809.81;;;11.91;80.17
13594;BME280;6449;47.666;9.160;2023-04-07T11:03:37;96807.41;;;11.99;76.43
13594;BME280;6449;47.666;9.160;2023-04-07T11:08:41;96810.28;;;12.17;74.93
13594;BME280;6449;47.666;9.160;2023-04-07T11:13:42;96809.63;;;12.25;76.73
13594;BME280;6449;47.666;9.160;2023-04-07T11:18:44;96818.09;;;12.28;80.14
13594;BME280;6449;47.666;9.160;2023-04-07T11:23:42;96816.97;;;12.42;80.75
13594;BME280;6449;47.666;9.160;2023-04-07T11:28:45;96827.06;;;12.68;83.71
13594;BME280;6449;47.666;9.160;2023-04-07T11:33:39;96819.41;;;12.65;79.36
13594;BME280;6449;47.666;9.160;2023-04-07T11:43:40;96834.19;;;12.56;88.42
13594;BME280;6449;47.666;9.160;2023-04-07T11:48:37;96835.00;;;12.56;94.04
13594;BME280;6449;47.666;9.160;2023-04-07T11:53:35;96842.19;;;12.54;94.28
13594;BME280;6449;47.666;9.160;2023-04-07T11:58:31;96837.72;;;12.45;91.79
13594;BME280;6449;47.666;9.160;2023-04-07T12:03:25;96836.63;;;12.48;89.46
13594;BME280;6449;47.666;9.160;2023-04-07T12:08:35;96834.56;;;12.51;89.81
13594;BME280;6449;47.666;9.160;2023-04-07T12:13:29;96841.31;;;12.44;90.76
13594;BME280;6449;47.666;9.160;2023-04-07T12:18:23;96833.94;;;12.38;88.18
13594;BME280;6449;47.666;9.160;2023-04-07T12:23:16;96849.06;;;12.46;95.54
13594;BME280;6449;47.666;9.160;2023-04-07T12:33:18;96841.00;;;12.58;89.69
13594;BME280;6449;47.666;9.160;2023-04-07T12:38:12;96837.31;;;12.71;89.25
13594;BME280;6449;47.666;9.160;2023-04-07T12:43:06;96842.59;;;12.50;92.07
13594;BME280;6449;47.666;9.160;2023-04-07T12:48:00;96850.69;;;12.37;96.35
13594;BME280;6449;47.666;9.160;2023-04-07T12:52:56;96856.06;;;12.36;100.00
13594;BME280;6449;47.666;9.160;2023-04-07T12:57:50;96850.94;;;12.34;100.00
13594;BME280;6449;47.666;9.160;2023-04-07T13:02:43;96855.41;;;12.01;100.00
13594;BME280;6449;47.666;9.160;2023-04-07T13:07:37;96857.00;;;12.14;100.00
13594;BME280;6449;47.666;9.160;2023-04-07T13:12:32;96860.53;;;12.24;100.00
13594;BME280;6449;47.666;9.160;2023-04-07T13:17:25;96855.41;;;12.22;100.00
13594;BME280;6449;47.666;9.160;2023-04-07T13:22:20;96856.16;;;11.92;100.00
13594;BME280;6449;47.666;9.160;2023-04-07T13:27:15;96865.63;;;11.72;100.00
13594;BME280;6449;47.666;9.160;2023-04-07T13:32:11;96865.97;;;11.79;100.00
13594;BME280;6449;47.666;9.160;2023-04-07T13:37:06;96862.72;;;11.87;100.00
13594;BME280;6449;47.666;9.160;2023-04-07T13:42:02;96860.56;;;11.92;100.00
13594;BME280;6449;47.666;9.160;2023-04-07T13:46:57;96860.94;;;11.87;100.00
13594;BME280;6449;47.666;9.160;2023-04-07T13:51:55;96864.56;;;12.07;100.00
13594;BME280;6449;47.666;9.160;2023-04-07T13:56:52;96859.63;;;12.14;100.00
13594;BME280;6449;47.666;9.160;2023-04-07T14:07:04;96862.22;;;12.04;100.00
13594;BME280;6449;47.666;9.160;2023-04-07T14:11:58;96865.53;;;12.06;100.00
13594;BME280;6449;47.666;9.160;2023-04-07T14:22:03;96872.09;;;12.32;100.00
13594;BME280;6449;47.666;9.160;2023-04-07T14:26:57;96862.41;;;12.33;100.00
13594;BME280;6449;47.666;9.160;2023-04-07T14:31:55;96869.66;;;12.41;100.00
13594;BME280;6449;47.666;9.160;2023-04-07T14:36:57;96867.22;;;12.49;100.00
13594;BME280;6449;47.666;9.160;2023-04-07T14:41:54;96866.56;;;12.56;100.00
13594;BME280;6449;47.666;9.160;2023-04-07T14:46:50;96868.06;;;12.49;100.00
13594;BME280;6449;47.666;9.160;2023-04-07T14:51:44;96863.09;;;12.56;100.00
13594;BME280;6449;47.666;9.160;2023-04-07T14:56:37;96876.53;;;12.53;100.00
13594;BME280;6449;47.666;9.160;2023-04-07T15:01:33;96869.25;;;12.66;100.00
13594;BME280;6449;47.666;9.160;2023-04-07T15:06:27;96868.75;;;12.51;100.00
13594;BME280;6449;47.666;9.160;2023-04-07T15:11:20;96883.13;;;12.26;100.00
13594;BME280;6449;47.666;9.160;2023-04-07T15:16:15;96893.97;;;12.33;100.00
13594;BME280;6449;47.666;9.160;2023-04-07T15:21:11;96889.34;;;12.25;100.00
13594;BME280;6449;47.666;9.160;2023-04-07T15:26:05;96900.19;;;12.32;100.00
13594;BME280;6449;47.666;9.160;2023-04-07T15:30:59;96902.50;;;12.14;100.00
13594;BME280;6449;47.666;9.160;2023-04-07T15:35:52;96912.66;;;11.87;100.00
13594;BME280;6449;47.666;9.160;2023-04-07T15:40:47;96912.91;;;11.72;100.00
13594;BME280;6449;47.666;9.160;2023-04-07T15:45:42;96929.28;;;11.53;100.00
13594;BME280;6449;47.666;9.160;2023-04-07T15:50:37;96929.78;;;11.47;100.00
13594;BME280;6449;47.666;9.160;2023-04-07T15:55:30;96921.78;;;11.38;100.00
13594;BME280;6449;47.666;9.160;2023-04-07T16:00:25;96923.72;;;11.24;100.00
13594;BME280;6449;47.666;9.160;2023-04-07T16:05:19;96930.75;;;11.24;100.00
13594;BME280;6449;47.666;9.160;2023-04-07T16:10:13;96936.44;;;11.29;100.00
13594;BME280;6449;47.666;9.160;2023-04-07T16:15:07;96950.88;;;11.23;100.00
13594;BME280;6449;47.666;9.160;2023-04-07T16:20:05;96953.28;;;11.15;100.00
13594;BME280;6449;47.666;9.160;2023-04-07T16:25:01;96955.50;;;10.86;100.00
13594;BME280;6449;47.666;9.160;2023-04-07T16:29:54;96966.59;;;10.79;100.00
13594;BME280;6449;47.666;9.160;2023-04-07T16:34:47;96970.13;;;10.66;100.00
13594;BME280;6449;47.666;9.160;2023-04-07T16:39:42;96973.25;;;10.71;100.00
13594;BME280;6449;47.666;9.160;2023-04-07T16:44:37;96982.63;;;10.63;100.00
13594;BME280;6449;47.666;9.160;2023-04-07T16:49:30;96991.78;;;10.57;100.00
13594;BME280;6449;47.666;9.160;2023-04-07T16:54:23;96991.69;;;10.70;100.00
13594;BME280;6449;47.666;9.160;2023-04-07T16:59:18;97005.69;;;10.46;100.00
13594;BME280;6449;47.666;9.160;2023-04-07T17:04:12;97009.31;;;10.57;100.00
13594;BME280;6449;47.666;9.160;2023-04-07T17:09:05;97010.56;;;10.40;100.00
13594;BME280;6449;47.666;9.160;2023-04-07T17:13:58;97018.41;;;10.40;100.00
13594;BME280;6449;47.666;9.160;2023-04-07T17:18:53;97016.91;;;10.25;100.00
13594;BME280;6449;47.666;9.160;2023-04-07T17:23:46;97029.16;;;10.11;100.00
13594;BME280;6449;47.666;9.160;2023-04-07T17:28:40;97039.56;;;10.13;100.00
13594;BME280;6449;47.666;9.160;2023-04-07T17:33:34;97041.84;;;10.17;100.00
13594;BME280;6449;47.666;9.160;2023-04-07T17:38:29;97045.72;;;10.12;100.00
13594;BME280;6449;47.666;9.160;2023-04-07T17:43:25;97044.75;;;9.89;100.00
13594;BME280;6449;47.666;9.160;2023-04-07T17:48:19;97057.63;;;9.79;100.00
13594;BME280;6449;47.666;9.160;2023-04-07T17:53:13;97063.63;;;9.68;100.00
13594;BME280;6449;47.666;9.160;2023-04-07T17:58:08;97068.88;;;9.56;100.00
13594;BME280;6449;47.666;9.160;2023-04-07T18:03:01;97077.16;;;9.37;100.00
13594;BME280;6449;47.666;9.160;2023-04-07T18:08:01;97087.00;;;9.33;100.00
13594;BME280;6449;47.666;9.160;2023-04-07T18:13:44;97091.19;;;9.36;100.00
13594;BME280;6449;47.666;9.160;2023-04-07T18:18:38;97096.81;;;9.42;100.00
13594;BME280;6449;47.666;9.160;2023-04-07T18:23:31;97099.13;;;9.22;100.00
13594;BME280;6449;47.666;9.160;2023-04-07T18:28:25;97102.47;;;9.36;100.00
13594;BME280;6449;47.666;9.160;2023-04-07T18:33:19;97108.72;;;9.21;100.00
13594;BME280;6449;47.666;9.160;2023-04-07T18:38:15;97113.38;;;9.43;100.00
13594;BME280;6449;47.666;9.160;2023-04-07T18:43:13;97116.28;;;9.26;100.00
13594;BME280;6449;47.666;9.160;2023-04-07T18:48:10;97125.50;;;9.31;100.00
13594;BME280;6449;47.666;9.160;2023-04-07T18:53:08;97121.75;;;9.35;100.00
13594;BME280;6449;47.666;9.160;2023-04-07T18:58:03;97128.03;;;9.45;100.00
13594;BME280;6449;47.666;9.160;2023-04-07T19:48:00;97181.09;;;8.95;100.00
13594;BME280;6449;47.666;9.160;2023-04-07T19:53:45;97180.44;;;8.91;100.00
13594;BME280;6449;47.666;9.160;2023-04-07T19:58:42;97182.78;;;9.09;100.00
13594;BME280;6449;47.666;9.160;2023-04-07T20:57:28;97207.09;;;9.11;100.00
13594;BME280;6449;47.666;9.160;2023-04-07T21:02:22;97219.13;;;8.86;100.00
13594;BME280;6449;47.666;9.160;2023-04-07T21:07:16;97219.50;;;8.80;100.00
13594;BME280;6449;47.666;9.160;2023-04-07T21:12:10;97214.66;;;8.74;100.00
13594;BME280;6449;47.666;9.160;2023-04-07T21:17:06;97214.00;;;8.71;100.00
13594;BME280;6449;47.666;9.160;2023-04-07T21:22:01;97209.88;;;8.81;100.00
13594;BME280;6449;47.666;9.160;2023-04-07T21:26:55;97208.13;;;8.67;100.00
13594;BME280;6449;47.666;9.160;2023-04-07T21:31:49;97210.84;;;9.07;100.00
13594;BME280;6449;47.666;9.160;2023-04-07T21:36:45;97220.78;;;8.87;100.00
13594;BME280;6449;47.666;9.160;2023-04-07T21:41:38;97216.59;;;8.85;100.00
13594;BME280;6449;47.666;9.160;2023-04-07T21:46:31;97216.69;;;8.83;100.00
13594;BME280;6449;47.666;9.160;2023-04-07T21:51:25;97220.34;;;8.81;100.00
13594;BME280;6449;47.666;9.160;2023-04-07T21:56:24;97219.91;;;8.74;100.00
13594;BME280;6449;47.666;9.160;2023-04-07T22:01:19;97219.69;;;8.77;100.00
13594;BME280;6449;47.666;9.160;2023-04-07T22:06:13;97217.84;;;8.79;100.00
13594;BME280;6449;47.666;9.160;2023-04-07T22:11:07;97215.69;;;8.72;100.00
13594;BME280;6449;47.666;9.160;2023-04-07T22:16:01;97216.91;;;8.66;100.00
13594;BME280;6449;47.666;9.160;2023-04-07T22:20:55;97223.81;;;8.67;100.00
13594;BME280;6449;47.666;9.160;2023-04-07T22:25:48;97222.03;;;8.68;100.00
13594;BME280;6449;47.666;9.160;2023-04-07T22:30:42;97213.38;;;8.67;100.00
13594;BME280;6449;47.666;9.160;2023-04-07T22:35:40;97216.25;;;8.62;100.00
13594;BME280;6449;47.666;9.160;2023-04-07T22:40:33;97224.16;;;8.48;100.00
13594;BME280;6449;47.666;9.160;2023-04-07T22:45:27;97227.03;;;8.44;100.00
13594;BME280;6449;47.666;9.160;2023-04-07T22:50:22;97226.38;;;8.26;100.00
13594;BME280;6449;47.666;9.160;2023-04-07T22:55:18;97233.66;;;8.21;100.00
13594;BME280;6449;47.666;9.160;2023-04-07T23:00:12;97231.13;;;8.33;100.00
13594;BME280;6449;47.666;9.160;2023-04-07T23:05:07;97235.25;;;8.37;100.00
13594;BME280;6449;47.666;9.160;2023-04-07T23:10:01;97234.59;;;8.48;100.00
13594;BME280;6449;47.666;9.160;2023-04-07T23:14:56;97232.44;;;8.55;100.00
13594;BME280;6449;47.666;9.160;2023-04-07T23:19:50;97240.09;;;8.44;100.00
13594;BME280;6449;47.666;9.160;2023-04-07T23:24:43;97238.44;;;8.43;100.00
13594;BME280;6449;47.666;9.160;2023-04-07T23:29:36;97245.41;;;8.28;100.00
13594;BME280;6449;47.666;9.160;2023-04-07T23:34:31;97243.34;;;8.19;100.00
13594;BME280;6449;47.666;9.160;2023-04-07T23:39:24;97253.03;;;8.17;100.00
13594;BME280;6449;47.666;9.160;2023-04-07T23:44:18;97242.97;;;8.25;100.00
13594;BME280;6449;47.666;9.160;2023-04-07T23:49:12;97253.69;;;8.34;100.00
13594;BME280;6449;47.666;9.160;2023-04-07T23:54:06;97250.63;;;8.28;100.00
13594;BME280;6449;47.666;9.160;2023-04-07T23:59:00;97244.84;;;8.23;100.00
